sensor_id;sensor_type;location;lat;lon;timestamp;P1;durP1;ratioP1;P2;durP2;ratioP2
17564;SDS011;62994;52.126;5.596;2022-12-05T00:00:49;51.30;;;23.67;;
17564;SDS011;62994;52.126;5.596;2022-12-05T00:03:17;46.93;;;23.77;;
17564;SDS011;62994;52.126;5.596;2022-12-05T00:05:45;46.73;;;23.47;;
17564;SDS011;62994;52.126;5.596;2022-12-05T00:08:12;47.30;;;23.07;;
17564;SDS011;62994;52.126;5.596;2022-12-05T00:10:43;48.30;;;23.87;;
17564;SDS011;62994;52.126;5.596;2022-12-05T00:13:10;51.30;;;25.60;;
17564;SDS011;62994;52.126;5.596;2022-12-05T00:15:38;50.77;;;24.30;;
17564;SDS011;62994;52.126;5.596;2022-12-05T00:18:06;46.83;;;24.77;;
17564;SDS011;62994;52.126;5.596;2022-12-05T00:20:33;52.30;;;24.53;;
17564;SDS011;62994;52.126;5.596;2022-12-05T00:23:01;46.47;;;23.93;;
17564;SDS011;62994;52.126;5.596;2022-12-05T00:25:28;46.30;;;23.60;;
17564;SDS011;62994;52.126;5.596;2022-12-05T00:27:55;44.87;;;23.27;;
17564;SDS011;62994;52.126;5.596;2022-12-05T00:30:22;45.23;;;23.90;;
17564;SDS011;62994;52.126;5.596;2022-12-05T00:32:49;46.33;;;22.77;;
17564;SDS011;62994;52.126;5.596;2022-12-05T00:35:16;45.57;;;24.47;;
17564;SDS011;62994;52.126;5.596;2022-12-05T00:37:43;46.67;;;24.30;;
17564;SDS011;62994;52.126;5.596;2022-12-05T00:40:11;50.43;;;25.07;;
17564;SDS011;62994;52.126;5.596;2022-12-05T00:42:38;50.80;;;24.37;;
17564;SDS011;62994;52.126;5.596;2022-12-05T00:45:05;50.37;;;25.10;;
17564;SDS011;62994;52.126;5.596;2022-12-05T00:47:36;49.10;;;24.20;;
17564;SDS011;62994;52.126;5.596;2022-12-05T00:50:03;53.00;;;23.90;;
17564;SDS011;62994;52.126;5.596;2022-12-05T00:52:31;50.17;;;24.77;;
17564;SDS011;62994;52.126;5.596;2022-12-05T00:54:58;48.00;;;24.27;;
17564;SDS011;62994;52.126;5.596;2022-12-05T00:57:26;51.07;;;24.00;;
17564;SDS011;62994;52.126;5.596;2022-12-05T01:00:03;49.53;;;24.63;;
17564;SDS011;62994;52.126;5.596;2022-12-05T01:02:31;43.57;;;23.57;;
17564;SDS011;62994;52.126;5.596;2022-12-05T01:04:58;50.93;;;25.33;;
17564;SDS011;62994;52.126;5.596;2022-12-05T01:07:25;47.17;;;23.57;;
17564;SDS011;62994;52.126;5.596;2022-12-05T01:09:52;50.30;;;24.67;;
17564;SDS011;62994;52.126;5.596;2022-12-05T01:12:19;45.13;;;23.70;;
17564;SDS011;62994;52.126;5.596;2022-12-05T01:14:47;50.97;;;25.17;;
17564;SDS011;62994;52.126;5.596;2022-12-05T01:17:14;46.77;;;24.47;;
17564;SDS011;62994;52.126;5.596;2022-12-05T01:19:41;43.03;;;22.23;;
17564;SDS011;62994;52.126;5.596;2022-12-05T01:22:10;49.37;;;24.07;;
17564;SDS011;62994;52.126;5.596;2022-12-05T01:24:37;48.50;;;22.37;;
17564;SDS011;62994;52.126;5.596;2022-12-05T01:27:06;42.77;;;22.17;;
17564;SDS011;62994;52.126;5.596;2022-12-05T01:29:33;44.03;;;21.80;;
17564;SDS011;62994;52.126;5.596;2022-12-05T01:32:02;43.43;;;23.93;;
17564;SDS011;62994;52.126;5.596;2022-12-05T01:34:29;47.93;;;22.87;;
17564;SDS011;62994;52.126;5.596;2022-12-05T01:36:56;45.43;;;23.37;;
17564;SDS011;62994;52.126;5.596;2022-12-05T01:39:25;51.23;;;23.80;;
17564;SDS011;62994;52.126;5.596;2022-12-05T01:41:53;47.43;;;23.93;;
17564;SDS011;62994;52.126;5.596;2022-12-05T01:47:24;55.25;;;28.15;;
17564;SDS011;62994;52.126;5.596;2022-12-05T01:49:54;48.53;;;23.53;;
17564;SDS011;62994;52.126;5.596;2022-12-05T01:52:24;47.23;;;23.27;;
17564;SDS011;62994;52.126;5.596;2022-12-05T01:54:55;47.57;;;23.43;;
17564;SDS011;62994;52.126;5.596;2022-12-05T01:57:31;51.00;;;23.27;;
17564;SDS011;62994;52.126;5.596;2022-12-05T01:59:59;40.47;;;22.33;;
17564;SDS011;62994;52.126;5.596;2022-12-05T02:02:31;43.50;;;23.07;;
17564;SDS011;62994;52.126;5.596;2022-12-05T02:05:00;42.07;;;22.80;;
17564;SDS011;62994;52.126;5.596;2022-12-05T02:07:30;41.53;;;22.27;;
17564;SDS011;62994;52.126;5.596;2022-12-05T02:09:58;43.43;;;22.40;;
17564;SDS011;62994;52.126;5.596;2022-12-05T02:12:25;46.00;;;23.27;;
17564;SDS011;62994;52.126;5.596;2022-12-05T02:15:05;46.03;;;23.33;;
17564;SDS011;62994;52.126;5.596;2022-12-05T02:17:46;40.27;;;21.53;;
17564;SDS011;62994;52.126;5.596;2022-12-05T02:20:26;39.23;;;21.50;;
17564;SDS011;62994;52.126;5.596;2022-12-05T02:26:24;38.80;;;21.33;;
17564;SDS011;62994;52.126;5.596;2022-12-05T02:32:18;43.90;;;21.67;;
17564;SDS011;62994;52.126;5.596;2022-12-05T02:34:54;41.73;;;21.30;;
17564;SDS011;62994;52.126;5.596;2022-12-05T02:37:29;38.57;;;20.47;;
17564;SDS011;62994;52.126;5.596;2022-12-05T02:40:02;42.27;;;21.83;;
17564;SDS011;62994;52.126;5.596;2022-12-05T02:42:36;45.50;;;25.03;;
17564;SDS011;62994;52.126;5.596;2022-12-05T02:45:09;44.23;;;22.63;;
17564;SDS011;62994;52.126;5.596;2022-12-05T02:47:42;40.10;;;20.27;;
17564;SDS011;62994;52.126;5.596;2022-12-05T02:50:12;38.53;;;20.27;;
17564;SDS011;62994;52.126;5.596;2022-12-05T02:52:42;37.83;;;20.37;;
17564;SDS011;62994;52.126;5.596;2022-12-05T02:55:13;38.40;;;21.53;;
17564;SDS011;62994;52.126;5.596;2022-12-05T02:57:41;38.23;;;21.13;;
17564;SDS011;62994;52.126;5.596;2022-12-05T03:00:11;39.63;;;21.07;;
17564;SDS011;62994;52.126;5.596;2022-12-05T03:02:38;39.10;;;20.43;;
17564;SDS011;62994;52.126;5.596;2022-12-05T03:05:12;41.77;;;21.63;;
17564;SDS011;62994;52.126;5.596;2022-12-05T03:07:45;43.00;;;20.63;;
17564;SDS011;62994;52.126;5.596;2022-12-05T03:10:22;36.13;;;19.73;;
17564;SDS011;62994;52.126;5.596;2022-12-05T03:13:03;35.30;;;19.63;;
17564;SDS011;62994;52.126;5.596;2022-12-05T03:15:35;33.40;;;19.40;;
17564;SDS011;62994;52.126;5.596;2022-12-05T03:18:06;38.87;;;19.70;;
17564;SDS011;62994;52.126;5.596;2022-12-05T03:20:42;42.47;;;19.50;;
17564;SDS011;62994;52.126;5.596;2022-12-05T03:23:14;41.60;;;19.67;;
17564;SDS011;62994;52.126;5.596;2022-12-05T03:25:46;35.70;;;19.23;;
17564;SDS011;62994;52.126;5.596;2022-12-05T03:28:21;37.80;;;20.77;;
17564;SDS011;62994;52.126;5.596;2022-12-05T03:30:51;35.27;;;19.73;;
17564;SDS011;62994;52.126;5.596;2022-12-05T03:33:20;41.30;;;20.03;;
17564;SDS011;62994;52.126;5.596;2022-12-05T03:35:57;36.00;;;20.50;;
17564;SDS011;62994;52.126;5.596;2022-12-05T03:38:29;37.23;;;19.70;;
17564;SDS011;62994;52.126;5.596;2022-12-05T03:41:03;39.90;;;19.27;;
17564;SDS011;62994;52.126;5.596;2022-12-05T03:43:36;34.87;;;19.47;;
17564;SDS011;62994;52.126;5.596;2022-12-05T03:46:08;36.27;;;18.50;;
17564;SDS011;62994;52.126;5.596;2022-12-05T03:48:41;34.33;;;18.57;;
17564;SDS011;62994;52.126;5.596;2022-12-05T03:51:16;34.03;;;19.37;;
17564;SDS011;62994;52.126;5.596;2022-12-05T03:53:46;36.67;;;19.77;;
17564;SDS011;62994;52.126;5.596;2022-12-05T03:56:18;34.63;;;18.83;;
17564;SDS011;62994;52.126;5.596;2022-12-05T03:58:50;33.07;;;18.57;;
17564;SDS011;62994;52.126;5.596;2022-12-05T04:01:21;33.70;;;18.10;;
17564;SDS011;62994;52.126;5.596;2022-12-05T04:03:50;35.80;;;19.63;;
17564;SDS011;62994;52.126;5.596;2022-12-05T04:06:24;35.87;;;18.87;;
17564;SDS011;62994;52.126;5.596;2022-12-05T04:08:56;33.00;;;19.17;;
17564;SDS011;62994;52.126;5.596;2022-12-05T04:11:26;33.73;;;19.50;;
17564;SDS011;62994;52.126;5.596;2022-12-05T04:13:57;37.03;;;20.17;;
17564;SDS011;62994;52.126;5.596;2022-12-05T04:16:28;35.10;;;18.87;;
17564;SDS011;62994;52.126;5.596;2022-12-05T04:19:16;30.30;;;18.37;;
17564;SDS011;62994;52.126;5.596;2022-12-05T04:21:51;30.37;;;18.70;;
17564;SDS011;62994;52.126;5.596;2022-12-05T04:24:20;32.73;;;18.60;;
17564;SDS011;62994;52.126;5.596;2022-12-05T04:27:14;32.27;;;19.97;;
17564;SDS011;62994;52.126;5.596;2022-12-05T04:29:51;32.50;;;18.80;;
17564;SDS011;62994;52.126;5.596;2022-12-05T04:32:23;35.90;;;23.63;;
17564;SDS011;62994;52.126;5.596;2022-12-05T04:34:56;34.17;;;19.83;;
17564;SDS011;62994;52.126;5.596;2022-12-05T04:37:28;33.90;;;18.80;;
17564;SDS011;62994;52.126;5.596;2022-12-05T04:40:06;34.73;;;19.30;;
17564;SDS011;62994;52.126;5.596;2022-12-05T04:42:40;31.97;;;18.67;;
17564;SDS011;62994;52.126;5.596;2022-12-05T04:45:09;30.33;;;18.27;;
17564;SDS011;62994;52.126;5.596;2022-12-05T04:47:39;28.23;;;17.23;;
17564;SDS011;62994;52.126;5.596;2022-12-05T04:50:09;31.03;;;19.10;;
17564;SDS011;62994;52.126;5.596;2022-12-05T04:52:40;32.07;;;18.50;;
17564;SDS011;62994;52.126;5.596;2022-12-05T04:55:11;38.63;;;19.33;;
17564;SDS011;62994;52.126;5.596;2022-12-05T04:57:41;30.67;;;18.07;;
17564;SDS011;62994;52.126;5.596;2022-12-05T05:00:18;31.40;;;18.50;;
17564;SDS011;62994;52.126;5.596;2022-12-05T05:02:45;27.83;;;17.30;;
17564;SDS011;62994;52.126;5.596;2022-12-05T05:05:17;36.47;;;19.33;;
17564;SDS011;62994;52.126;5.596;2022-12-05T05:07:47;30.93;;;18.70;;
17564;SDS011;62994;52.126;5.596;2022-12-05T05:10:24;30.63;;;18.07;;
17564;SDS011;62994;52.126;5.596;2022-12-05T05:12:56;30.00;;;18.17;;
17564;SDS011;62994;52.126;5.596;2022-12-05T05:15:23;31.23;;;18.70;;
17564;SDS011;62994;52.126;5.596;2022-12-05T05:17:50;29.97;;;18.27;;
17564;SDS011;62994;52.126;5.596;2022-12-05T05:20:17;30.37;;;18.43;;
17564;SDS011;62994;52.126;5.596;2022-12-05T05:22:52;32.22;;;17.00;;
17564;SDS011;62994;52.126;5.596;2022-12-05T05:25:23;33.88;;;20.65;;
17564;SDS011;62994;52.126;5.596;2022-12-05T05:27:51;31.45;;;18.15;;
17564;SDS011;62994;52.126;5.596;2022-12-05T05:30:31;30.60;;;18.50;;
17564;SDS011;62994;52.126;5.596;2022-12-05T05:32:58;27.10;;;17.23;;
17564;SDS011;62994;52.126;5.596;2022-12-05T05:35:25;27.23;;;17.33;;
17564;SDS011;62994;52.126;5.596;2022-12-05T05:37:53;29.07;;;17.47;;
17564;SDS011;62994;52.126;5.596;2022-12-05T05:40:20;29.77;;;17.57;;
17564;SDS011;62994;52.126;5.596;2022-12-05T05:42:48;28.07;;;17.97;;
17564;SDS011;62994;52.126;5.596;2022-12-05T05:45:26;32.30;;;18.00;;
17564;SDS011;62994;52.126;5.596;2022-12-05T05:47:53;29.85;;;17.65;;
17564;SDS011;62994;52.126;5.596;2022-12-05T05:50:23;27.23;;;16.73;;
17564;SDS011;62994;52.126;5.596;2022-12-05T05:52:56;29.67;;;17.10;;
17564;SDS011;62994;52.126;5.596;2022-12-05T05:55:23;28.63;;;17.33;;
17564;SDS011;62994;52.126;5.596;2022-12-05T05:57:50;33.63;;;18.23;;
17564;SDS011;62994;52.126;5.596;2022-12-05T06:00:17;25.55;;;17.05;;
17564;SDS011;62994;52.126;5.596;2022-12-05T06:02:44;31.52;;;17.80;;
17564;SDS011;62994;52.126;5.596;2022-12-05T06:05:11;28.27;;;16.85;;
17564;SDS011;62994;52.126;5.596;2022-12-05T06:07:38;27.80;;;17.35;;
17564;SDS011;62994;52.126;5.596;2022-12-05T06:10:07;26.47;;;17.03;;
17564;SDS011;62994;52.126;5.596;2022-12-05T06:12:36;29.20;;;17.27;;
17564;SDS011;62994;52.126;5.596;2022-12-05T06:15:03;29.40;;;18.43;;
17564;SDS011;62994;52.126;5.596;2022-12-05T06:17:31;29.45;;;17.23;;
17564;SDS011;62994;52.126;5.596;2022-12-05T06:20:03;24.87;;;16.40;;
17564;SDS011;62994;52.126;5.596;2022-12-05T06:22:30;32.23;;;18.13;;
17564;SDS011;62994;52.126;5.596;2022-12-05T06:25:08;29.60;;;17.50;;
17564;SDS011;62994;52.126;5.596;2022-12-05T06:27:35;31.17;;;18.07;;
17564;SDS011;62994;52.126;5.596;2022-12-05T06:30:03;30.53;;;17.67;;
17564;SDS011;62994;52.126;5.596;2022-12-05T06:32:30;29.57;;;17.27;;
17564;SDS011;62994;52.126;5.596;2022-12-05T06:34:57;27.93;;;16.70;;
17564;SDS011;62994;52.126;5.596;2022-12-05T06:37:24;28.57;;;16.80;;
17564;SDS011;62994;52.126;5.596;2022-12-05T06:39:51;28.73;;;17.27;;
17564;SDS011;62994;52.126;5.596;2022-12-05T06:42:23;27.20;;;16.98;;
17564;SDS011;62994;52.126;5.596;2022-12-05T06:44:50;29.40;;;17.20;;
17564;SDS011;62994;52.126;5.596;2022-12-05T06:47:17;29.58;;;17.50;;
17564;SDS011;62994;52.126;5.596;2022-12-05T06:49:44;29.80;;;17.15;;
17564;SDS011;62994;52.126;5.596;2022-12-05T06:52:11;32.90;;;17.90;;
17564;SDS011;62994;52.126;5.596;2022-12-05T06:54:42;30.17;;;17.00;;
17564;SDS011;62994;52.126;5.596;2022-12-05T06:57:17;33.23;;;18.47;;
17564;SDS011;62994;52.126;5.596;2022-12-05T06:59:45;34.13;;;17.27;;
17564;SDS011;62994;52.126;5.596;2022-12-05T07:02:12;28.53;;;18.13;;
17564;SDS011;62994;52.126;5.596;2022-12-05T07:04:38;35.47;;;18.80;;
17564;SDS011;62994;52.126;5.596;2022-12-05T07:07:05;30.97;;;17.43;;
17564;SDS011;62994;52.126;5.596;2022-12-05T07:09:32;31.27;;;17.80;;
17564;SDS011;62994;52.126;5.596;2022-12-05T07:12:12;30.70;;;17.80;;
17564;SDS011;62994;52.126;5.596;2022-12-05T07:14:41;34.73;;;17.93;;
17564;SDS011;62994;52.126;5.596;2022-12-05T07:17:10;33.03;;;18.43;;
17564;SDS011;62994;52.126;5.596;2022-12-05T07:19:36;31.10;;;17.60;;
17564;SDS011;62994;52.126;5.596;2022-12-05T07:22:04;28.90;;;17.17;;
17564;SDS011;62994;52.126;5.596;2022-12-05T07:24:31;31.57;;;17.63;;
17564;SDS011;62994;52.126;5.596;2022-12-05T07:26:58;28.40;;;15.93;;
17564;SDS011;62994;52.126;5.596;2022-12-05T07:29:25;27.63;;;16.60;;
17564;SDS011;62994;52.126;5.596;2022-12-05T07:31:55;27.83;;;16.63;;
17564;SDS011;62994;52.126;5.596;2022-12-05T07:34:24;25.97;;;15.83;;
17564;SDS011;62994;52.126;5.596;2022-12-05T07:36:51;30.37;;;16.33;;
17564;SDS011;62994;52.126;5.596;2022-12-05T07:39:18;30.58;;;16.63;;
17564;SDS011;62994;52.126;5.596;2022-12-05T07:41:45;24.10;;;15.27;;
17564;SDS011;62994;52.126;5.596;2022-12-05T07:44:12;28.45;;;16.30;;
17564;SDS011;62994;52.126;5.596;2022-12-05T07:46:47;28.23;;;16.30;;
17564;SDS011;62994;52.126;5.596;2022-12-05T07:49:14;27.83;;;15.73;;
17564;SDS011;62994;52.126;5.596;2022-12-05T07:51:44;25.42;;;15.50;;
17564;SDS011;62994;52.126;5.596;2022-12-05T07:54:16;28.15;;;16.08;;
17564;SDS011;62994;52.126;5.596;2022-12-05T07:56:46;27.88;;;16.08;;
17564;SDS011;62994;52.126;5.596;2022-12-05T07:59:12;26.73;;;14.95;;
17564;SDS011;62994;52.126;5.596;2022-12-05T08:01:39;31.80;;;16.13;;
17564;SDS011;62994;52.126;5.596;2022-12-05T08:04:06;24.52;;;14.95;;
17564;SDS011;62994;52.126;5.596;2022-12-05T08:06:33;26.45;;;14.82;;
17564;SDS011;62994;52.126;5.596;2022-12-05T08:09:02;30.63;;;15.77;;
17564;SDS011;62994;52.126;5.596;2022-12-05T08:11:29;27.80;;;16.80;;
17564;SDS011;62994;52.126;5.596;2022-12-05T08:14:00;30.45;;;16.25;;
17564;SDS011;62994;52.126;5.596;2022-12-05T08:16:28;29.93;;;15.00;;
17564;SDS011;62994;52.126;5.596;2022-12-05T08:18:57;24.48;;;14.95;;
17564;SDS011;62994;52.126;5.596;2022-12-05T08:21:25;30.92;;;15.88;;
17564;SDS011;62994;52.126;5.596;2022-12-05T08:23:55;24.23;;;15.00;;
17564;SDS011;62994;52.126;5.596;2022-12-05T08:26:25;28.20;;;16.27;;
17564;SDS011;62994;52.126;5.596;2022-12-05T08:28:53;28.40;;;15.48;;
17564;SDS011;62994;52.126;5.596;2022-12-05T08:31:22;24.60;;;15.63;;
17564;SDS011;62994;52.126;5.596;2022-12-05T08:33:50;30.73;;;15.88;;
17564;SDS011;62994;52.126;5.596;2022-12-05T08:36:18;27.67;;;16.02;;
17564;SDS011;62994;52.126;5.596;2022-12-05T08:38:54;24.90;;;15.82;;
17564;SDS011;62994;52.126;5.596;2022-12-05T08:41:21;27.58;;;16.77;;
17564;SDS011;62994;52.126;5.596;2022-12-05T08:43:54;28.08;;;15.98;;
17564;SDS011;62994;52.126;5.596;2022-12-05T08:46:21;22.58;;;14.30;;
17564;SDS011;62994;52.126;5.596;2022-12-05T08:48:48;23.55;;;15.52;;
17564;SDS011;62994;52.126;5.596;2022-12-05T08:51:16;22.08;;;15.10;;
17564;SDS011;62994;52.126;5.596;2022-12-05T08:53:43;23.83;;;15.35;;
17564;SDS011;62994;52.126;5.596;2022-12-05T08:56:14;22.42;;;14.57;;
17564;SDS011;62994;52.126;5.596;2022-12-05T08:58:41;26.55;;;15.63;;
17564;SDS011;62994;52.126;5.596;2022-12-05T09:01:10;22.23;;;14.80;;
17564;SDS011;62994;52.126;5.596;2022-12-05T09:03:39;27.80;;;15.43;;
17564;SDS011;62994;52.126;5.596;2022-12-05T09:06:09;26.85;;;15.10;;
17564;SDS011;62994;52.126;5.596;2022-12-05T09:08:38;21.25;;;14.98;;
17564;SDS011;62994;52.126;5.596;2022-12-05T09:11:05;21.75;;;15.20;;
17564;SDS011;62994;52.126;5.596;2022-12-05T09:13:34;24.45;;;15.48;;
17564;SDS011;62994;52.126;5.596;2022-12-05T09:16:04;23.63;;;14.68;;
17564;SDS011;62994;52.126;5.596;2022-12-05T09:18:33;21.38;;;13.50;;
17564;SDS011;62994;52.126;5.596;2022-12-05T09:21:05;20.27;;;14.30;;
17564;SDS011;62994;52.126;5.596;2022-12-05T09:23:33;22.15;;;14.18;;
17564;SDS011;62994;52.126;5.596;2022-12-05T09:26:00;23.15;;;15.20;;
17564;SDS011;62994;52.126;5.596;2022-12-05T09:28:28;21.25;;;14.68;;
17564;SDS011;62994;52.126;5.596;2022-12-05T09:30:55;23.48;;;14.52;;
17564;SDS011;62994;52.126;5.596;2022-12-05T09:33:23;22.30;;;14.95;;
17564;SDS011;62994;52.126;5.596;2022-12-05T09:35:51;24.67;;;14.00;;
17564;SDS011;62994;52.126;5.596;2022-12-05T09:38:19;20.02;;;13.95;;
17564;SDS011;62994;52.126;5.596;2022-12-05T09:40:46;17.20;;;13.23;;
17564;SDS011;62994;52.126;5.596;2022-12-05T09:43:25;21.02;;;14.32;;
17564;SDS011;62994;52.126;5.596;2022-12-05T09:46:02;21.00;;;14.43;;
17564;SDS011;62994;52.126;5.596;2022-12-05T09:48:35;20.70;;;14.18;;
17564;SDS011;62994;52.126;5.596;2022-12-05T09:51:07;18.98;;;14.20;;
17564;SDS011;62994;52.126;5.596;2022-12-05T09:53:36;17.58;;;13.23;;
17564;SDS011;62994;52.126;5.596;2022-12-05T09:56:10;18.05;;;13.23;;
17564;SDS011;62994;52.126;5.596;2022-12-05T09:58:42;20.15;;;13.80;;
17564;SDS011;62994;52.126;5.596;2022-12-05T10:01:18;18.13;;;14.05;;
17564;SDS011;62994;52.126;5.596;2022-12-05T10:04:00;20.13;;;13.20;;
17564;SDS011;62994;52.126;5.596;2022-12-05T10:06:39;15.55;;;13.25;;
17564;SDS011;62994;52.126;5.596;2022-12-05T10:09:14;17.13;;;13.52;;
17564;SDS011;62994;52.126;5.596;2022-12-05T10:11:51;17.63;;;13.43;;
17564;SDS011;62994;52.126;5.596;2022-12-05T10:14:25;18.98;;;13.00;;
17564;SDS011;62994;52.126;5.596;2022-12-05T10:17:00;16.23;;;11.88;;
17564;SDS011;62994;52.126;5.596;2022-12-05T10:19:40;13.60;;;11.73;;
17564;SDS011;62994;52.126;5.596;2022-12-05T10:22:13;17.60;;;12.50;;
17564;SDS011;62994;52.126;5.596;2022-12-05T10:24:45;15.90;;;12.10;;
17564;SDS011;62994;52.126;5.596;2022-12-05T10:27:17;15.15;;;11.80;;
17564;SDS011;62994;52.126;5.596;2022-12-05T10:29:47;13.02;;;11.70;;
17564;SDS011;62994;52.126;5.596;2022-12-05T10:32:22;17.05;;;13.07;;
17564;SDS011;62994;52.126;5.596;2022-12-05T10:35:01;16.30;;;12.73;;
17564;SDS011;62994;52.126;5.596;2022-12-05T10:37:41;17.35;;;12.98;;
17564;SDS011;62994;52.126;5.596;2022-12-05T10:40:12;14.52;;;11.90;;
17564;SDS011;62994;52.126;5.596;2022-12-05T10:42:39;15.10;;;12.27;;
17564;SDS011;62994;52.126;5.596;2022-12-05T10:45:07;16.25;;;12.90;;
17564;SDS011;62994;52.126;5.596;2022-12-05T10:47:39;13.98;;;11.65;;
17564;SDS011;62994;52.126;5.596;2022-12-05T10:50:12;12.63;;;11.15;;
17564;SDS011;62994;52.126;5.596;2022-12-05T10:52:48;18.02;;;12.27;;
17564;SDS011;62994;52.126;5.596;2022-12-05T10:55:17;13.73;;;11.63;;
17564;SDS011;62994;52.126;5.596;2022-12-05T10:57:48;13.45;;;11.40;;
17564;SDS011;62994;52.126;5.596;2022-12-05T11:00:19;13.00;;;11.25;;
17564;SDS011;62994;52.126;5.596;2022-12-05T11:02:55;13.45;;;12.02;;
17564;SDS011;62994;52.126;5.596;2022-12-05T11:05:26;13.68;;;11.73;;
17564;SDS011;62994;52.126;5.596;2022-12-05T11:07:56;12.18;;;10.88;;
17564;SDS011;62994;52.126;5.596;2022-12-05T11:10:25;13.32;;;11.80;;
17564;SDS011;62994;52.126;5.596;2022-12-05T11:12:56;12.57;;;10.50;;
17564;SDS011;62994;52.126;5.596;2022-12-05T11:15:32;12.32;;;11.18;;
17564;SDS011;62994;52.126;5.596;2022-12-05T11:20:43;13.13;;;10.93;;
17564;SDS011;62994;52.126;5.596;2022-12-05T11:25:59;8.50;;;7.60;;
17564;SDS011;62994;52.126;5.596;2022-12-05T11:28:31;8.45;;;7.75;;
17564;SDS011;62994;52.126;5.596;2022-12-05T11:31:02;9.07;;;8.18;;
17564;SDS011;62994;52.126;5.596;2022-12-05T11:33:33;7.43;;;6.93;;
17564;SDS011;62994;52.126;5.596;2022-12-05T11:36:02;8.50;;;7.28;;
17564;SDS011;62994;52.126;5.596;2022-12-05T11:38:35;7.60;;;7.10;;
17564;SDS011;62994;52.126;5.596;2022-12-05T11:41:08;7.85;;;7.25;;
17564;SDS011;62994;52.126;5.596;2022-12-05T11:44:08;6.13;;;5.72;;
17564;SDS011;62994;52.126;5.596;2022-12-05T11:46:47;6.45;;;5.85;;
17564;SDS011;62994;52.126;5.596;2022-12-05T11:52:23;6.03;;;5.60;;
17564;SDS011;62994;52.126;5.596;2022-12-05T11:55:06;5.25;;;4.93;;
17564;SDS011;62994;52.126;5.596;2022-12-05T11:57:47;6.20;;;5.70;;
17564;SDS011;62994;52.126;5.596;2022-12-05T12:00:29;5.60;;;5.15;;
17564;SDS011;62994;52.126;5.596;2022-12-05T12:06:12;5.32;;;4.85;;
17564;SDS011;62994;52.126;5.596;2022-12-05T12:08:54;4.70;;;4.40;;
17564;SDS011;62994;52.126;5.596;2022-12-05T12:11:33;4.95;;;4.65;;
17564;SDS011;62994;52.126;5.596;2022-12-05T12:14:06;5.07;;;4.78;;
17564;SDS011;62994;52.126;5.596;2022-12-05T12:16:43;4.38;;;4.15;;
17564;SDS011;62994;52.126;5.596;2022-12-05T12:22:17;5.30;;;4.72;;
17564;SDS011;62994;52.126;5.596;2022-12-05T12:25:00;4.53;;;4.20;;
17564;SDS011;62994;52.126;5.596;2022-12-05T12:27:40;4.43;;;4.13;;
17564;SDS011;62994;52.126;5.596;2022-12-05T12:30:16;4.63;;;4.30;;
17564;SDS011;62994;52.126;5.596;2022-12-05T12:32:50;4.95;;;4.55;;
17564;SDS011;62994;52.126;5.596;2022-12-05T12:35:29;4.18;;;3.97;;
17564;SDS011;62994;52.126;5.596;2022-12-05T12:38:10;4.68;;;4.15;;
17564;SDS011;62994;52.126;5.596;2022-12-05T12:40:45;5.43;;;4.65;;
17564;SDS011;62994;52.126;5.596;2022-12-05T12:43:20;4.45;;;4.15;;
17564;SDS011;62994;52.126;5.596;2022-12-05T12:46:09;4.43;;;4.13;;
17564;SDS011;62994;52.126;5.596;2022-12-05T12:48:53;4.22;;;4.03;;
17564;SDS011;62994;52.126;5.596;2022-12-05T12:51:31;4.15;;;3.88;;
17564;SDS011;62994;52.126;5.596;2022-12-05T12:54:08;3.80;;;3.60;;
17564;SDS011;62994;52.126;5.596;2022-12-05T12:56:47;3.92;;;3.72;;
17564;SDS011;62994;52.126;5.596;2022-12-05T12:59:25;3.83;;;3.53;;
17564;SDS011;62994;52.126;5.596;2022-12-05T13:02:17;4.28;;;3.17;;
17564;SDS011;62994;52.126;5.596;2022-12-05T13:04:52;3.50;;;3.30;;
17564;SDS011;62994;52.126;5.596;2022-12-05T13:07:34;3.95;;;3.60;;
17564;SDS011;62994;52.126;5.596;2022-12-05T13:10:11;4.07;;;3.17;;
17564;SDS011;62994;52.126;5.596;2022-12-05T13:12:48;3.03;;;2.83;;
17564;SDS011;62994;52.126;5.596;2022-12-05T13:15:19;4.05;;;3.15;;
17564;SDS011;62994;52.126;5.596;2022-12-05T13:17:55;3.15;;;2.95;;
17564;SDS011;62994;52.126;5.596;2022-12-05T13:20:24;3.35;;;3.15;;
17564;SDS011;62994;52.126;5.596;2022-12-05T13:22:55;3.67;;;3.47;;
17564;SDS011;62994;52.126;5.596;2022-12-05T13:25:23;3.63;;;3.42;;
17564;SDS011;62994;52.126;5.596;2022-12-05T13:27:54;3.60;;;3.40;;
17564;SDS011;62994;52.126;5.596;2022-12-05T13:30:24;3.78;;;3.47;;
17564;SDS011;62994;52.126;5.596;2022-12-05T13:32:54;4.15;;;3.85;;
17564;SDS011;62994;52.126;5.596;2022-12-05T13:35:25;3.50;;;3.30;;
17564;SDS011;62994;52.126;5.596;2022-12-05T13:38:18;3.60;;;3.40;;
17564;SDS011;62994;52.126;5.596;2022-12-05T13:41:04;3.88;;;3.55;;
17564;SDS011;62994;52.126;5.596;2022-12-05T13:43:49;3.50;;;3.30;;
17564;SDS011;62994;52.126;5.596;2022-12-05T13:46:23;4.68;;;4.38;;
17564;SDS011;62994;52.126;5.596;2022-12-05T13:48:57;4.28;;;3.85;;
17564;SDS011;62994;52.126;5.596;2022-12-05T13:51:34;3.47;;;3.28;;
17564;SDS011;62994;52.126;5.596;2022-12-05T13:54:04;3.85;;;3.65;;
17564;SDS011;62994;52.126;5.596;2022-12-05T13:56:47;4.00;;;3.70;;
17564;SDS011;62994;52.126;5.596;2022-12-05T14:11:15;4.00;;;3.80;;
17564;SDS011;62994;52.126;5.596;2022-12-05T14:13:42;4.35;;;3.83;;
17564;SDS011;62994;52.126;5.596;2022-12-05T14:25:22;4.22;;;3.92;;
17564;SDS011;62994;52.126;5.596;2022-12-05T14:27:57;4.25;;;4.03;;
17564;SDS011;62994;52.126;5.596;2022-12-05T14:30:29;4.43;;;4.13;;
17564;SDS011;62994;52.126;5.596;2022-12-05T14:33:10;3.28;;;3.08;;
17564;SDS011;62994;52.126;5.596;2022-12-05T14:35:41;4.03;;;3.42;;
17564;SDS011;62994;52.126;5.596;2022-12-05T14:38:19;3.95;;;3.75;;
17564;SDS011;62994;52.126;5.596;2022-12-05T14:40:48;3.67;;;3.45;;
17564;SDS011;62994;52.126;5.596;2022-12-05T14:43:17;3.80;;;3.60;;
17564;SDS011;62994;52.126;5.596;2022-12-05T14:45:54;3.60;;;3.20;;
17564;SDS011;62994;52.126;5.596;2022-12-05T14:48:25;3.42;;;3.22;;
17564;SDS011;62994;52.126;5.596;2022-12-05T14:50:55;3.80;;;3.13;;
17564;SDS011;62994;52.126;5.596;2022-12-05T14:53:29;3.30;;;3.08;;
17564;SDS011;62994;52.126;5.596;2022-12-05T14:56:04;3.30;;;3.10;;
17564;SDS011;62994;52.126;5.596;2022-12-05T14:58:39;3.80;;;3.50;;
17564;SDS011;62994;52.126;5.596;2022-12-05T15:01:12;4.15;;;3.90;;
17564;SDS011;62994;52.126;5.596;2022-12-05T15:03:42;3.45;;;3.25;;
17564;SDS011;62994;52.126;5.596;2022-12-05T15:06:24;3.60;;;3.40;;
17564;SDS011;62994;52.126;5.596;2022-12-05T15:08:53;3.75;;;3.55;;
17564;SDS011;62994;52.126;5.596;2022-12-05T15:11:23;3.90;;;3.58;;
17564;SDS011;62994;52.126;5.596;2022-12-05T15:13:55;3.90;;;3.60;;
17564;SDS011;62994;52.126;5.596;2022-12-05T15:16:25;3.70;;;3.50;;
17564;SDS011;62994;52.126;5.596;2022-12-05T15:18:55;3.42;;;3.08;;
17564;SDS011;62994;52.126;5.596;2022-12-05T15:21:28;3.33;;;3.13;;
17564;SDS011;62994;52.126;5.596;2022-12-05T15:24:00;3.85;;;3.65;;
17564;SDS011;62994;52.126;5.596;2022-12-05T15:26:38;4.05;;;2.95;;
17564;SDS011;62994;52.126;5.596;2022-12-05T15:29:07;3.63;;;3.42;;
17564;SDS011;62994;52.126;5.596;2022-12-05T15:31:37;4.07;;;3.67;;
17564;SDS011;62994;52.126;5.596;2022-12-05T15:34:14;4.15;;;3.90;;
17564;SDS011;62994;52.126;5.596;2022-12-05T15:36:47;3.83;;;3.63;;
17564;SDS011;62994;52.126;5.596;2022-12-05T15:39:19;5.22;;;4.80;;